Weather reports worldwide

Advertisment
Coventry/Coundon, United Kingdom (99070): temperature & dewpoint: 30.07.2020 03:00:00 - 05.08.2020 03:00:00 (BST)Coventry/Coundon, United Kingdom (99070): temperature -20cm & temperature -100cm: 30.07.2020 03:00:00 - 05.08.2020 03:00:00 (BST)Coventry/Coundon, United Kingdom (99070): wind speed & gusts: 30.07.2020 03:00:00 - 05.08.2020 03:00:00 (BST)Coventry/Coundon, United Kingdom (99070): wind direction: 30.07.2020 03:00:00 - 05.08.2020 03:00:00 (BST)Coventry/Coundon, United Kingdom (99070): sunshine duration: 30.07.2020 03:00:00 - 05.08.2020 03:00:00 (BST)Coventry/Coundon, United Kingdom (99070): precipitation: 30.07.2020 03:00:00 - 05.08.2020 03:00:00 (BST)
Date & Time tt [°C] td [°C] tt -20cm [°C] tt -100cm [°C] ff [km/h] ff [kn] fx [km/h] fx [kn] dd sd [min] rr [mm]
05.08.2020 03:00:00 - - - - - - - - - - -
05.08.2020 02:00:00 16,6 13,5 - - 18 10 - - SW 0 0,0
05.08.2020 01:00:00 16,9 13,5 - - 16 9 - - SSW - 0,0
05.08.2020 00:00:00 17,1 13,3 - - 16 9 - - SSW 0 0,0
04.08.2020 23:00:00 17,5 13,2 - - 15 8 - - SW 0 0,0
04.08.2020 22:00:00 17,9 12,9 - - 16 9 - - SW 0 0,0
04.08.2020 21:00:00 18,2 12,7 - - 16 9 - - SW 0 0,0
04.08.2020 20:00:00 18,8 11,7 - - 21 11 - - SW 0 0,0
04.08.2020 19:00:00 19,4 11,7 - - 15 8 - - SW 0 0,0
04.08.2020 18:00:00 19,7 10,8 - - 16 9 46 25 SW 12 0,0
04.08.2020 17:00:00 20,8 10,1 - - 18 10 - - SSW 48 0,0
04.08.2020 16:00:00 19,3 9,6 - - 16 9 - - SSW 6 0,0
04.08.2020 15:00:00 18,2 7,2 - - 15 8 - - SSW 0 0,0
04.08.2020 14:00:00 17,8 8,5 - - 15 8 - - SSW 0 0,0
04.08.2020 13:00:00 17,0 8,2 - - 11 6 - - SSW 0 0,0
04.08.2020 12:00:00 16,1 8,1 - - 9 5 - - SW 0 0,0
04.08.2020 11:00:00 14,4 7,6 - - 11 6 - - SW 0 0,0
04.08.2020 10:00:00 15,4 8,5 17,0 16,2 8 4 - - SSW 6 0,0
04.08.2020 09:00:00 15,0 8,6 - - 8 4 - - SSW 18 0,0
04.08.2020 08:00:00 13,9 9,4 - - 4 2 - - S 42 0,0
04.08.2020 07:00:00 10,9 7,8 - - 4 2 - - W 18 0,0
04.08.2020 06:00:00 7,9 6,8 - - 2 1 - - S 0 0,0
04.08.2020 05:00:00 8,0 6,2 - - 2 1 - - W 0 0,0
04.08.2020 04:00:00 7,8 6,2 - - 4 2 - - W 0 0,0
04.08.2020 03:00:00 8,6 6,4 - - 2 1 - - WNW 0 0,0
04.08.2020 02:00:00 9,6 6,6 - - 4 2 - - WNW 0 0,0
04.08.2020 01:00:00 10,7 6,7 - - 5 3 - - NNW - 0,0
04.08.2020 00:00:00 11,9 6,5 - - 8 4 - - NW 0 0,0
03.08.2020 23:00:00 12,1 5,6 - - 5 3 - - NNW 0 0,0
03.08.2020 22:00:00 13,5 6,0 - - 8 4 - - NW 0 0,0
03.08.2020 21:00:00 14,4 5,8 - - 5 3 - - NNW 18 0,0
03.08.2020 20:00:00 16,0 6,0 - - 5 3 - - N 30 0,0
03.08.2020 19:00:00 18,5 5,8 - - 11 6 - - NW 60 0,0
03.08.2020 18:00:00 18,5 6,0 - - 15 8 - - NNW 54 0,0
03.08.2020 17:00:00 18,0 6,3 - - 15 8 - - NNW 36 0,0
03.08.2020 16:00:00 18,9 8,5 - - 13 7 - - NNW 30 0,0
03.08.2020 15:00:00 17,1 7,1 - - 15 8 - - N 24 0,0
03.08.2020 14:00:00 16,1 9,1 - - 15 8 - - NW 0 0,0
03.08.2020 13:00:00 18,1 6,5 - - 11 6 - - W 24 0,0
03.08.2020 12:00:00 18,0 9,7 - - 13 7 - - NW 18 0,0
03.08.2020 11:00:00 17,5 10,1 - - 9 5 - - NNW 30 0,0
03.08.2020 10:00:00 17,0 10,6 17,5 16,2 11 6 - - NW 54 0,0
03.08.2020 09:00:00 15,6 10,9 - - 9 5 - - NNW 60 0,0
03.08.2020 08:00:00 13,9 9,9 - - 9 5 - - NW 60 0,0
03.08.2020 07:00:00 12,1 9,9 - - 5 3 - - WNW 36 0,0
03.08.2020 06:00:00 10,6 9,3 - - 5 3 - - WNW 0 0,0
03.08.2020 05:00:00 10,5 8,6 - - 4 2 - - WNW 0 0,0
03.08.2020 04:00:00 10,4 8,2 - - 4 2 - - NW 0 0,0
03.08.2020 03:00:00 11,5 8,4 - - 5 3 - - NW 0 0,0
03.08.2020 02:00:00 12,3 8,0 - - 5 3 - - NW 0 0,0
03.08.2020 01:00:00 13,1 8,3 - - 5 3 - - NW - 0,0
03.08.2020 00:00:00 14,0 8,3 - - 5 3 - - NNW 0 0,0
02.08.2020 23:00:00 14,2 8,6 - - 5 3 - - NNW 0 0,0
02.08.2020 22:00:00 15,8 9,4 - - 8 4 - - N 0 0,0
02.08.2020 21:00:00 17,2 9,8 - - 9 5 - - NNW 0 0,0
02.08.2020 20:00:00 19,2 7,5 - - 9 5 - - WNW 24 0,0
02.08.2020 19:00:00 19,6 7,7 - - 11 6 - - NW 12 0,0
02.08.2020 18:00:00 21,8 8,1 - - 15 8 - - W 36 0,0
02.08.2020 17:00:00 21,5 8,1 - - 15 8 - - W 30 0,0
02.08.2020 16:00:00 22,6 8,5 - - 15 8 - - W 42 0,0
02.08.2020 15:00:00 21,2 8,7 - - 9 5 - - W 30 0,0
02.08.2020 14:00:00 19,3 9,8 - - 13 7 - - W 24 0,0
02.08.2020 13:00:00 19,7 9,3 - - 16 9 - - WSW 18 0,0
02.08.2020 12:00:00 20,2 10,1 - - 9 5 - - SW 54 0,0
02.08.2020 11:00:00 17,9 11,2 - - 11 6 - - W 36 0,0
02.08.2020 10:00:00 17,1 10,9 17,7 16,2 13 7 - - WSW 60 0,0
02.08.2020 09:00:00 14,8 11,1 - - 8 4 - - WSW 42 0,0
02.08.2020 08:00:00 13,0 11,0 - - 5 3 - - SSW 18 0,0
02.08.2020 07:00:00 10,4 9,3 - - 5 3 - - SSW 0 0,0
02.08.2020 06:00:00 10,0 9,1 - - 5 3 - - SW 0 0,0
02.08.2020 05:00:00 9,6 8,0 - - 4 2 - - SW 0 0,0
02.08.2020 04:00:00 10,3 8,0 - - 4 2 - - SW 0 0,0
02.08.2020 03:00:00 11,3 8,2 - - 4 2 - - W 0 0,0
02.08.2020 02:00:00 11,6 8,3 - - 4 2 - - WSW 0 0,0
02.08.2020 01:00:00 11,9 8,4 - - 4 2 - - W - 0,0
02.08.2020 00:00:00 12,6 8,3 - - 2 1 - - W 0 0,0
01.08.2020 23:00:00 15,2 8,7 - - 4 2 - - W 0 0,0
01.08.2020 22:00:00 16,6 9,2 - - 9 5 - - W 0 0,0
01.08.2020 21:00:00 17,3 8,9 - - 9 5 - - W 0 0,0
01.08.2020 20:00:00 18,7 10,0 - - 13 7 - - W 0 0,0
01.08.2020 19:00:00 18,9 11,9 - - 9 5 - - WNW 18 0,0
01.08.2020 18:00:00 19,1 13,6 - - 13 7 - - NW 0 0,0
01.08.2020 17:00:00 19,0 14,4 - - 9 5 - - NW 0 0,0
01.08.2020 16:00:00 19,9 14,1 - - 15 8 - - NW 0 0,0
01.08.2020 15:00:00 22,1 13,1 - - 9 5 - - SSW 18 0,0
01.08.2020 14:00:00 20,8 13,2 - - 9 5 - - WSW 0 0,0
01.08.2020 13:00:00 21,2 13,5 - - 13 7 - - SW 0 0,0
01.08.2020 12:00:00 20,6 12,9 - - 11 6 - - WSW 0 0,0
01.08.2020 11:00:00 19,1 13,9 - - 11 6 - - WSW 0 0,0
01.08.2020 10:00:00 17,8 14,3 18,2 16,0 9 5 - - SW 0 0,0
01.08.2020 09:00:00 16,7 13,9 - - 11 6 - - WSW 0 0,0
01.08.2020 08:00:00 16,4 13,7 - - 9 5 - - SW 36 0,0
01.08.2020 07:00:00 15,2 13,1 - - 5 3 - - SSW 48 0,0
01.08.2020 06:00:00 13,9 12,4 - - 8 4 - - SSW 0 0,0
01.08.2020 05:00:00 14,1 12,3 - - 5 3 - - SW 0 0,0
01.08.2020 04:00:00 15,0 12,5 - - 5 3 - - WSW 0 0,0
01.08.2020 03:00:00 15,9 13,0 - - 11 6 - - W 0 0,0
01.08.2020 02:00:00 17,3 13,9 - - 15 8 - - W 0 0,0
01.08.2020 01:00:00 19,0 15,6 - - 9 5 - - WSW - 0,0
01.08.2020 00:00:00 20,4 16,3 - - 11 6 - - WSW 0 0,0
31.07.2020 23:00:00 20,9 16,6 - - 8 4 - - WSW 0 0,0
31.07.2020 22:00:00 21,5 16,2 - - 9 5 - - WSW 0 0,0
31.07.2020 21:00:00 23,2 15,1 - - 11 6 - - WSW 0 0,0
31.07.2020 20:00:00 24,5 15,2 - - 13 7 - - WSW 0 0,0
31.07.2020 19:00:00 26,9 16,6 - - 13 7 - - WSW 0 0,0
31.07.2020 18:00:00 30,5 16,3 - - 15 8 - - WSW 12 0,0
31.07.2020 17:00:00 35,0 13,8 - - 15 8 - - S 60 0,0
31.07.2020 16:00:00 34,7 13,1 - - 15 8 - - S 60 0,0
31.07.2020 15:00:00 33,9 12,7 - - 16 9 - - SSE 60 0,0
31.07.2020 14:00:00 33,5 12,5 - - 16 9 - - S 60 0,0
31.07.2020 13:00:00 32,2 12,2 - - 16 9 - - SSE 60 0,0
31.07.2020 12:00:00 30,7 11,2 - - 21 11 - - SSE 60 0,0
31.07.2020 11:00:00 28,2 13,6 - - 13 7 - - SE 60 0,0
31.07.2020 10:00:00 26,0 12,6 17,7 16,0 15 8 - - SE 60 0,0
31.07.2020 09:00:00 23,9 12,6 - - 11 6 - - SSE 60 0,0
31.07.2020 08:00:00 20,6 13,3 - - 8 4 - - SE 60 0,0
31.07.2020 07:00:00 17,9 12,6 - - 5 3 - - ESE 42 0,0
31.07.2020 06:00:00 15,2 11,0 - - 5 3 - - SE 0 0,0
31.07.2020 05:00:00 16,7 11,2 - - 8 4 - - E 0 0,0
31.07.2020 04:00:00 15,4 10,0 - - 5 3 - - E 0 0,0
31.07.2020 03:00:00 15,3 9,6 - - 4 2 - - E 0 0,0
31.07.2020 02:00:00 15,8 8,7 - - 2 1 - - SE 0 0,0
31.07.2020 01:00:00 17,7 8,7 - - 4 2 - - SSE - 0,0
31.07.2020 00:00:00 20,4 9,6 - - 9 5 - - SSE 0 0,0
30.07.2020 23:00:00 18,4 10,3 - - 5 3 - - SE 0 0,0
30.07.2020 22:00:00 20,5 8,7 - - 5 3 - - SE 0 0,0
30.07.2020 21:00:00 24,0 8,2 - - 5 3 - - SSE 30 0,0
30.07.2020 20:00:00 25,7 9,6 - - 9 5 - - S 48 0,0
30.07.2020 19:00:00 26,4 9,5 - - 9 5 - - S 54 0,0
30.07.2020 18:00:00 27,2 9,7 - - 8 4 - - S 60 0,0
30.07.2020 17:00:00 27,1 8,3 - - 9 5 - - S 60 0,0
30.07.2020 16:00:00 26,5 8,5 - - 11 6 - - S 60 0,0
30.07.2020 15:00:00 26,5 9,3 - - 8 4 - - S 54 0,0
30.07.2020 14:00:00 25,5 10,6 - - 11 6 - - S 60 0,0
30.07.2020 13:00:00 24,3 11,2 - - 8 4 - - SSW 60 0,0
30.07.2020 12:00:00 21,8 11,0 - - 8 4 - - S 48 0,0
30.07.2020 11:00:00 20,4 11,3 - - 8 4 - - SSW 12 0,0
30.07.2020 10:00:00 20,2 12,0 17,2 16,0 8 4 - - S 54 0,0
30.07.2020 09:00:00 17,8 12,9 - - 5 3 - - S 6 0,0
30.07.2020 08:00:00 17,2 12,7 - - 5 3 - - S 36 0,0
30.07.2020 07:00:00 14,7 11,9 - - 4 2 - - SSE 0 0,0
30.07.2020 06:00:00 14,7 11,7 - - 4 2 - - SSW 0 0,0
30.07.2020 05:00:00 15,0 11,2 - - 2 1 - - SW 0 0,0
30.07.2020 04:00:00 14,5 11,7 - - 2 1 - - S 0 0,0
30.07.2020 03:00:00 14,6 11,6 - - 2 1 - - W 0 0,0

tt = temperature
td = dewpoint
tt -20cm = temperature -20cm
tt -100cm = temperature -100cm
ff = wind speed
fx = gusts
dd = wind direction
sd = sunshine duration
rr = precipitation

Next stations